createdAt,value
2023-05-20T00:00:11.998Z,102557.72
2023-05-20T00:00:49.056Z,102560.56
2023-05-20T00:01:20.499Z,102558.97
2023-05-20T00:01:52.016Z,102556.59
2023-05-20T00:02:23.508Z,102553.84
2023-05-20T00:02:55.084Z,102563.19
2023-05-20T00:03:26.649Z,102565.13
2023-05-20T00:03:58.290Z,102560.00
2023-05-20T00:04:29.876Z,102557.16
2023-05-20T00:05:01.736Z,102556.03
2023-05-20T00:05:33.290Z,102557.97
2023-05-20T00:06:04.711Z,102562.28
2023-05-20T00:06:36.182Z,102559.91
2023-05-20T00:07:07.830Z,102555.22
2023-05-20T00:07:39.370Z,102559.09
2023-05-20T00:08:11.149Z,102549.28
2023-05-20T00:08:42.590Z,102558.41
2023-05-20T00:09:14.069Z,102556.47
2023-05-20T00:09:45.788Z,102560.81
2023-05-20T00:10:17.247Z,102551.25
2023-05-20T00:10:48.707Z,102554.44
2023-05-20T00:11:20.158Z,102550.22
2023-05-20T00:11:51.620Z,102562.75
2023-05-20T00:12:23.138Z,102557.63
2023-05-20T00:12:54.621Z,102553.63
2023-05-20T00:13:26.078Z,102552.38
2023-05-20T00:13:57.524Z,102553.50
2023-05-20T00:14:28.963Z,102553.50
2023-05-20T00:15:00.737Z,102562.06
2023-05-20T00:15:32.842Z,102557.66
2023-05-20T00:16:05.187Z,102553.31
2023-05-20T00:16:36.745Z,102554.91
2023-05-20T00:17:08.241Z,102557.31
2023-05-20T00:17:39.802Z,102554.91
2023-05-20T00:18:13.750Z,102560.38
2023-05-20T00:18:45.183Z,102548.31
2023-05-20T00:19:16.965Z,102556.06
2023-05-20T00:19:48.602Z,102552.53
2023-05-20T00:20:20.178Z,102561.19
2023-05-20T00:20:51.770Z,102558.34
2023-05-20T00:21:23.315Z,102565.38
2023-05-20T00:21:57.483Z,102561.41
2023-05-20T00:22:31.419Z,102557.88
2023-05-20T00:23:02.938Z,102557.06
2023-05-20T00:23:34.411Z,102559.81
2023-05-20T00:24:06.139Z,102553.09
2023-05-20T00:24:37.562Z,102560.28
2023-05-20T00:25:09.334Z,102559.47
2023-05-20T00:25:40.781Z,102561.75
2023-05-20T00:26:12.207Z,102563.69
2023-05-20T00:26:43.641Z,102562.53
2023-05-20T00:27:15.027Z,102573.47
2023-05-20T00:27:47.227Z,102567.56
2023-05-20T00:28:19.813Z,102569.16
2023-05-20T00:28:51.323Z,102560.84
2023-05-20T00:29:23.009Z,102564.38
2023-05-20T00:29:54.543Z,102562.78
2023-05-20T00:30:26.324Z,102562.97
2023-05-20T00:30:57.826Z,102559.44
2023-05-20T00:31:29.353Z,102558.63
2023-05-20T00:32:00.875Z,102570.06
2023-05-20T00:32:32.370Z,102563.44
2023-05-20T00:33:04.010Z,102563.78
2023-05-20T00:33:36.362Z,102565.84
2023-05-20T00:34:08.638Z,102566.19
2023-05-20T00:34:40.164Z,102557.97
2023-05-20T00:35:11.702Z,102562.97
2023-05-20T00:35:43.240Z,102566.19
2023-05-20T00:36:14.797Z,102560.94
2023-05-20T00:36:46.263Z,102567.63
2023-05-20T00:37:17.908Z,102557.84
2023-05-20T00:37:49.347Z,102560.16
2023-05-20T00:38:20.763Z,102560.56
2023-05-20T00:38:52.264Z,102563.69
2023-05-20T00:39:25.569Z,102560.16
2023-05-20T00:39:57.074Z,102563.22
2023-05-20T00:40:28.584Z,102556.97
2023-05-20T00:41:00.118Z,102558.91
2023-05-20T00:41:32.440Z,102558.91
2023-05-20T00:42:03.997Z,102550.91
2023-05-20T00:42:35.443Z,102554.09
2023-05-20T00:43:06.861Z,102551.81
2023-05-20T00:43:38.334Z,102548.31
2023-05-20T00:44:10.151Z,102557.63
2023-05-20T00:44:41.704Z,102551.72
2023-05-20T00:45:13.215Z,102553.19
2023-05-20T00:45:44.750Z,102548.88
2023-05-20T00:46:16.487Z,102546.81
2023-05-20T00:46:48.222Z,102551.47
2023-05-20T00:47:21.590Z,102549.53
2023-05-20T00:47:53.062Z,102550.69
2023-05-20T00:48:24.696Z,102547.94
2023-05-20T00:48:56.266Z,102540.56
2023-05-20T00:49:27.748Z,102556.16
2023-05-20T00:50:00.363Z,102552.72
2023-05-20T00:50:32.000Z,102552.28
2023-05-20T00:51:05.048Z,102556.16
2023-05-20T00:51:36.518Z,102549.00
2023-05-20T00:52:08.639Z,102559.22
2023-05-20T00:52:41.574Z,102546.25
2023-05-20T00:53:13.385Z,102552.53
2023-05-20T00:53:45.453Z,102548.28
2023-05-20T00:54:16.878Z,102551.47
2023-05-20T00:54:49.894Z,102547.59
2023-05-20T00:55:22.096Z,102546.00
2023-05-20T00:55:54.016Z,102554.22
2023-05-20T00:56:26.174Z,102554.56
2023-05-20T00:56:59.317Z,102562.75
2023-05-20T00:57:30.867Z,102547.50
2023-05-20T00:58:02.544Z,102553.75
2023-05-20T00:58:36.766Z,102555.69
2023-05-20T00:59:09.150Z,102540.88
2023-05-20T00:59:42.772Z,102538.94
2023-05-20T01:00:15.790Z,102540.47
2023-05-20T01:00:47.326Z,102542.81
2023-05-20T01:01:18.977Z,102550.34
2023-05-20T01:01:50.570Z,102542.47
2023-05-20T01:02:22.704Z,102544.41
2023-05-20T01:02:55.708Z,102538.50
2023-05-20T01:03:27.426Z,102538.41
2023-05-20T01:04:00.119Z,102542.03
2023-05-20T01:04:32.135Z,102536.47
2023-05-20T01:05:03.785Z,102538.88
2023-05-20T01:05:36.003Z,102545.94
2023-05-20T01:06:07.969Z,102538.88
2023-05-20T01:06:39.500Z,102540.81
2023-05-20T01:07:10.925Z,102542.81
2023-05-20T01:07:42.609Z,102533.75
2023-05-20T01:08:14.287Z,102540.47
2023-05-20T01:08:45.973Z,102539.53
2023-05-20T01:09:17.431Z,102539.53
2023-05-20T01:09:48.886Z,102541.13
2023-05-20T01:10:22.686Z,102528.63
2023-05-20T01:11:03.704Z,102530.22
2023-05-20T01:11:41.862Z,102529.75
2023-05-20T01:12:20.730Z,102532.16
2023-05-20T01:12:57.060Z,102528.97
2023-05-20T01:13:36.792Z,102537.94
2023-05-20T01:14:08.883Z,102539.09
2023-05-20T01:14:56.526Z,102541.81
2023-05-20T01:15:29.606Z,102537.84
2023-05-20T01:16:03.473Z,102537.72
2023-05-20T01:16:36.389Z,102535.09
2023-05-20T01:17:11.129Z,102540.91
2023-05-20T01:17:47.227Z,102536.22
2023-05-20T01:18:20.669Z,102522.13
2023-05-20T01:18:55.842Z,102535.78
2023-05-20T01:19:35.361Z,102524.41
2023-05-20T01:20:10.245Z,102529.53
2023-05-20T01:20:41.848Z,102538.84
2023-05-20T01:21:15.938Z,102533.38
2023-05-20T01:21:49.072Z,102527.91
2023-05-20T01:22:27.598Z,102520.06
2023-05-20T01:22:59.566Z,102531.78
2023-05-20T01:23:41.709Z,102530.66
2023-05-20T01:24:13.532Z,102521.22
2023-05-20T01:24:48.241Z,102525.06
2023-05-20T01:25:19.858Z,102532.13
2023-05-20T01:25:51.378Z,102530.53
2023-05-20T01:26:26.903Z,102535.19
2023-05-20T01:26:58.754Z,102532.38
2023-05-20T01:27:31.839Z,102527.25
2023-05-20T01:28:03.674Z,102531.66
2023-05-20T01:28:38.677Z,102528.50
2023-05-20T01:29:13.803Z,102528.50
2023-05-20T01:29:45.954Z,102515.19
2023-05-20T01:30:17.568Z,102523.84
2023-05-20T01:30:55.753Z,102526.56
2023-05-20T01:31:33.764Z,102525.31
2023-05-20T01:32:08.925Z,102529.66
2023-05-20T01:32:48.527Z,102528.06
2023-05-20T01:33:23.694Z,102520.41
2023-05-20T01:33:58.281Z,102526.34
2023-05-20T01:34:30.350Z,102527.81
2023-05-20T01:35:02.968Z,102520.75
2023-05-20T01:35:36.357Z,102518.34
2023-05-20T01:36:09.075Z,102512.91
2023-05-20T01:36:41.490Z,102518.81
2023-05-20T01:37:13.829Z,102512.91
2023-05-20T01:37:46.789Z,102517.09
2023-05-20T01:38:19.553Z,102521.56
2023-05-20T01:38:51.305Z,102509.72
2023-05-20T01:39:24.790Z,102517.09
2023-05-20T01:39:56.944Z,102519.16
2023-05-20T01:40:29.191Z,102515.97
2023-05-20T01:41:02.755Z,102510.50
2023-05-20T01:41:36.092Z,102515.63
2023-05-20T01:42:08.812Z,102507.66
2023-05-20T01:42:42.024Z,102509.03
2023-05-20T01:43:15.141Z,102516.19
2023-05-20T01:43:48.401Z,102500.84
2023-05-20T01:44:19.829Z,102514.63
2023-05-20T01:44:51.326Z,102508.38
2023-05-20T01:45:24.848Z,102510.63
2023-05-20T01:45:56.252Z,102513.44
2023-05-20T01:46:28.109Z,102505.97
2023-05-20T01:47:01.430Z,102512.69
2023-05-20T01:47:33.083Z,102504.50
2023-05-20T01:48:04.958Z,102511.53
2023-05-20T01:48:38.357Z,102501.75
2023-05-20T01:49:09.946Z,102510.38
2023-05-20T01:49:41.609Z,102508.69
2023-05-20T01:50:13.123Z,102497.44
2023-05-20T01:50:44.742Z,102504.03
2023-05-20T01:51:16.775Z,102499.72
2023-05-20T01:51:48.265Z,102499.25
2023-05-20T01:52:22.126Z,102509.16
2023-05-20T01:52:53.618Z,102504.72
2023-05-20T01:53:25.044Z,102507.56
2023-05-20T01:53:56.484Z,102505.50
2023-05-20T01:54:27.894Z,102511.78
2023-05-20T01:54:59.393Z,102505.84
2023-05-20T01:55:30.850Z,102505.03
2023-05-20T01:56:02.346Z,102514.16
2023-05-20T01:56:34.723Z,102504.03
2023-05-20T01:57:06.367Z,102512.09
2023-05-20T01:57:37.973Z,102514.72
2023-05-20T01:58:09.778Z,102510.84
2023-05-20T01:58:41.234Z,102501.72
2023-05-20T01:59:13.127Z,102513.56
2023-05-20T01:59:44.607Z,102514.25
2023-05-20T02:00:16.153Z,102506.84
2023-05-20T02:00:47.610Z,102508.78
2023-05-20T02:01:19.070Z,102513.13
2023-05-20T02:01:50.710Z,102512.31
2023-05-20T02:02:22.485Z,102511.53
2023-05-20T02:02:54.018Z,102510.84
2023-05-20T02:03:25.706Z,102511.19
2023-05-20T02:03:57.174Z,102513.13
2023-05-20T02:04:29.034Z,102509.25
2023-05-20T02:05:00.824Z,102512.31
2023-05-20T02:05:32.467Z,102503.66
2023-05-20T02:06:04.079Z,102505.94
2023-05-20T02:06:35.667Z,102512.19
2023-05-20T02:07:07.097Z,102505.13
2023-05-20T02:07:38.863Z,102510.25
2023-05-20T02:08:10.418Z,102502.75
2023-05-20T02:08:41.945Z,102509.81
2023-05-20T02:09:14.464Z,102507.88
2023-05-20T02:09:47.162Z,102505.13
2023-05-20T02:10:18.603Z,102507.41
2023-05-20T02:10:50.110Z,102510.59
2023-05-20T02:11:22.387Z,102504.34
2023-05-20T02:11:53.952Z,102498.78
2023-05-20T02:12:25.350Z,102510.13
2023-05-20T02:12:56.886Z,102501.06
2023-05-20T02:13:28.345Z,102500.25
2023-05-20T02:13:59.794Z,102514.00
2023-05-20T02:14:31.221Z,102508.13
2023-05-20T02:15:02.793Z,102505.81
2023-05-20T02:15:34.456Z,102506.50
2023-05-20T02:16:06.321Z,102502.66
2023-05-20T02:16:37.997Z,102511.19
2023-05-20T02:17:09.576Z,102500.13
2023-05-20T02:17:43.609Z,102500.47
2023-05-20T02:18:18.592Z,102504.00
2023-05-20T02:18:53.001Z,102505.00
2023-05-20T02:19:24.787Z,102498.41
2023-05-20T02:19:56.462Z,102508.19
2023-05-20T02:20:27.854Z,102512.53
2023-05-20T02:21:04.094Z,102512.19
2023-05-20T02:21:35.911Z,102510.94
2023-05-20T02:22:07.630Z,102507.53
2023-05-20T02:22:39.388Z,102516.06
2023-05-20T02:23:10.875Z,102507.06
2023-05-20T02:23:42.287Z,102512.53
2023-05-20T02:24:13.740Z,102503.19
2023-05-20T02:24:45.955Z,102509.47
2023-05-20T02:25:17.417Z,102499.69
2023-05-20T02:25:48.874Z,102512.06
2023-05-20T02:26:20.787Z,102506.13
2023-05-20T02:26:54.446Z,102505.81
2023-05-20T02:27:26.084Z,102512.06
2023-05-20T02:27:57.726Z,102512.41
2023-05-20T02:28:29.398Z,102509.22
2023-05-20T02:29:00.887Z,102510.00
2023-05-20T02:29:32.516Z,102508.41
2023-05-20T02:30:04.402Z,102512.28
2023-05-20T02:30:37.215Z,102513.88
2023-05-20T02:31:08.708Z,102505.56
2023-05-20T02:31:40.167Z,102509.88
2023-05-20T02:32:12.491Z,102506.34
2023-05-20T02:32:44.060Z,102510.22
2023-05-20T02:33:15.568Z,102509.88
2023-05-20T02:33:47.196Z,102513.75
2023-05-20T02:34:18.995Z,102513.75
2023-05-20T02:34:50.474Z,102511.00
2023-05-20T02:35:21.882Z,102510.56
2023-05-20T02:35:53.311Z,102507.03
2023-05-20T02:36:24.747Z,102511.38
2023-05-20T02:36:56.485Z,102506.59
2023-05-20T02:37:28.809Z,102505.13
2023-05-20T02:38:00.495Z,102507.84
2023-05-20T02:38:32.416Z,102497.94
2023-05-20T02:39:03.842Z,102505.44
2023-05-20T02:39:35.587Z,102503.41
2023-05-20T02:40:09.301Z,102505.31
2023-05-20T02:40:44.705Z,102509.66
2023-05-20T02:41:16.285Z,102498.59
2023-05-20T02:41:47.897Z,102500.19
2023-05-20T02:42:19.428Z,102502.59
2023-05-20T02:42:50.987Z,102501.00
2023-05-20T02:43:22.496Z,102501.81
2023-05-20T02:43:54.276Z,102489.16
2023-05-20T02:44:26.090Z,102501.00
2023-05-20T02:44:58.821Z,102496.22
2023-05-20T02:45:30.937Z,102493.81
2023-05-20T02:46:03.480Z,102496.22
2023-05-20T02:46:35.233Z,102493.03
2023-05-20T02:47:06.876Z,102499.28
2023-05-20T02:47:38.350Z,102500.06
2023-05-20T02:48:09.877Z,102498.47
2023-05-20T02:48:41.682Z,102499.28
2023-05-20T02:49:13.151Z,102502.34
2023-05-20T02:49:44.624Z,102489.38
2023-05-20T02:50:16.492Z,102487.91
2023-05-20T02:51:36.957Z,102497.22
2023-05-20T02:52:09.031Z,102490.50
2023-05-20T02:52:42.318Z,102492.91
2023-05-20T02:53:13.934Z,102490.50
2023-05-20T02:53:46.358Z,102488.91
2023-05-20T02:54:17.826Z,102490.84
2023-05-20T02:54:49.293Z,102494.34
2023-05-20T02:55:21.334Z,102498.25
2023-05-20T02:55:52.838Z,102495.84
2023-05-20T02:56:24.627Z,102484.03
2023-05-20T02:56:56.231Z,102485.63
2023-05-20T02:57:28.369Z,102485.94
2023-05-20T02:57:59.855Z,102483.22
2023-05-20T02:58:31.396Z,102485.94
2023-05-20T02:59:04.733Z,102487.88
2023-05-20T02:59:36.260Z,102487.53
2023-05-20T03:00:11.815Z,102493.34
2023-05-20T03:00:43.630Z,102490.59
2023-05-20T03:01:15.171Z,102487.09
2023-05-20T03:01:46.829Z,102488.69
2023-05-20T03:02:18.565Z,102485.94
2023-05-20T03:02:50.028Z,102483.09
2023-05-20T03:03:21.742Z,102481.16
2023-05-20T03:03:53.253Z,102476.84
2023-05-20T03:04:27.081Z,102490.94
2023-05-20T03:04:58.687Z,102489.69
2023-05-20T03:05:30.125Z,102486.16
2023-05-20T03:06:01.752Z,102486.81
2023-05-20T03:06:33.915Z,102492.75
2023-05-20T03:07:07.568Z,102496.25
2023-05-20T03:07:38.995Z,102494.34
2023-05-20T03:08:11.012Z,102497.06
2023-05-20T03:08:42.870Z,102490.81
2023-05-20T03:09:14.447Z,102484.44
2023-05-20T03:09:46.092Z,102489.88
2023-05-20T03:10:17.688Z,102499.31
2023-05-20T03:10:49.345Z,102493.88
2023-05-20T03:11:21.927Z,102490.69
2023-05-20T03:11:53.418Z,102498.19
2023-05-20T03:12:26.347Z,102485.56
2023-05-20T03:12:57.893Z,102496.59
2023-05-20T03:13:29.419Z,102492.94
2023-05-20T03:14:00.898Z,102490.22
2023-05-20T03:14:32.370Z,102493.88
2023-05-20T03:15:04.050Z,102492.28
2023-05-20T03:15:36.846Z,102491.34
2023-05-20T03:16:08.545Z,102491.00
2023-05-20T03:16:40.415Z,102498.41
2023-05-20T03:17:12.348Z,102499.53
2023-05-20T03:17:43.870Z,102494.44
2023-05-20T03:18:15.401Z,102487.38
2023-05-20T03:18:46.871Z,102498.28
2023-05-20T03:19:18.348Z,102501.00
2023-05-20T03:19:49.862Z,102489.97
2023-05-20T03:20:21.618Z,102496.22
2023-05-20T03:20:53.650Z,102492.25
2023-05-20T03:21:25.246Z,102492.25
2023-05-20T03:21:57.885Z,102494.50
2023-05-20T03:22:29.791Z,102491.78
2023-05-20T03:23:02.025Z,102489.03
2023-05-20T03:23:33.485Z,102491.78
2023-05-20T03:24:05.611Z,102487.91
2023-05-20T03:24:37.153Z,102494.97
2023-05-20T03:25:09.792Z,102496.56
2023-05-20T03:25:41.400Z,102494.63
2023-05-20T03:26:12.911Z,102499.75
2023-05-20T03:26:46.506Z,102500.88
2023-05-20T03:27:18.268Z,102496.56
2023-05-20T03:27:49.686Z,102492.25
2023-05-20T03:28:21.214Z,102496.56
2023-05-20T03:28:52.678Z,102497.34
2023-05-20T03:29:24.242Z,102493.84
2023-05-20T03:29:55.671Z,102498.81
2023-05-20T03:30:27.914Z,102494.50
2023-05-20T03:30:59.451Z,102496.44
2023-05-20T03:31:30.996Z,102495.63
2023-05-20T03:32:02.560Z,102499.50
2023-05-20T03:32:34.086Z,102497.22
2023-05-20T03:33:05.949Z,102500.28
2023-05-20T03:33:37.654Z,102494.03
2023-05-20T03:34:09.148Z,102500.41
2023-05-20T03:34:40.751Z,102506.53
2023-05-20T03:35:12.414Z,102505.06
2023-05-20T03:35:43.880Z,102498.69
2023-05-20T03:36:15.513Z,102499.03
2023-05-20T03:36:47.028Z,102502.22
2023-05-20T03:37:18.474Z,102495.97
2023-05-20T03:37:51.763Z,102495.97
2023-05-20T03:38:23.280Z,102497.09
2023-05-20T03:38:54.743Z,102496.44
2023-05-20T03:39:26.361Z,102504.13
2023-05-20T03:39:57.864Z,102504.28
2023-05-20T03:40:29.557Z,102494.84
2023-05-20T03:41:04.222Z,102501.09
2023-05-20T03:41:35.850Z,102493.25
2023-05-20T03:42:07.842Z,102499.50
2023-05-20T03:42:39.754Z,102499.34
2023-05-20T03:43:11.193Z,102495.50
2023-05-20T03:43:42.628Z,102497.44
2023-05-20T03:44:14.045Z,102500.63
2023-05-20T03:44:45.626Z,102499.81
2023-05-20T03:45:17.077Z,102497.56
2023-05-20T03:45:48.520Z,102499.50
2023-05-20T03:46:20.055Z,102489.25
2023-05-20T03:46:51.624Z,102492.44
2023-05-20T03:47:23.128Z,102494.22
2023-05-20T03:47:54.790Z,102500.81
2023-05-20T03:48:26.379Z,102500.00
2023-05-20T03:48:57.868Z,102495.34
2023-05-20T03:49:29.444Z,102495.72
2023-05-20T03:50:00.952Z,102494.56
2023-05-20T03:50:32.547Z,102495.34
2023-05-20T03:51:04.134Z,102491.41
2023-05-20T03:51:35.683Z,102492.03
2023-05-20T03:52:07.797Z,102497.28
2023-05-20T03:52:40.986Z,102495.34
2023-05-20T03:53:12.642Z,102494.13
2023-05-20T03:53:44.102Z,102494.56
2023-05-20T03:54:17.327Z,102492.19
2023-05-20T03:54:49.918Z,102491.50
2023-05-20T03:55:21.504Z,102502.53
2023-05-20T03:55:53.120Z,102500.63
2023-05-20T03:56:24.611Z,102487.66
2023-05-20T03:56:56.635Z,102497.91
2023-05-20T03:57:29.399Z,102491.97
2023-05-20T03:58:01.488Z,102492.44
2023-05-20T03:58:33.091Z,102489.56
2023-05-20T03:59:04.552Z,102486.53
2023-05-20T03:59:36.625Z,102486.53
2023-05-20T04:00:12.033Z,102483.78
2023-05-20T04:00:43.785Z,102494.84
2023-05-20T04:01:15.560Z,102483.78
2023-05-20T04:01:47.152Z,102484.13
2023-05-20T04:02:18.755Z,102492.44
2023-05-20T04:02:50.462Z,102487.31
2023-05-20T04:03:23.024Z,102489.72
2023-05-20T04:03:54.614Z,102482.66
2023-05-20T04:04:26.121Z,102490.50
2023-05-20T04:04:57.767Z,102486.19
2023-05-20T04:05:29.413Z,102491.44
2023-05-20T04:06:00.907Z,102476.88
2023-05-20T04:06:33.012Z,102490.66
2023-05-20T04:07:07.715Z,102487.44
2023-05-20T04:07:39.464Z,102488.59
2023-05-20T04:08:13.549Z,102482.66
2023-05-20T04:08:45.034Z,102487.91
2023-05-20T04:09:16.513Z,102487.13
2023-05-20T04:09:48.010Z,102487.91
2023-05-20T04:10:20.895Z,102492.25
2023-05-20T04:10:56.523Z,102495.31
2023-05-20T04:11:33.226Z,102484.72
2023-05-20T04:12:07.319Z,102491.09
2023-05-20T04:12:38.826Z,102489.03
2023-05-20T04:13:11.133Z,102493.84
2023-05-20T04:13:42.588Z,102488.38
2023-05-20T04:14:14.115Z,102496.22
2023-05-20T04:14:45.607Z,102497.81
2023-05-20T04:15:17.393Z,102491.09
2023-05-20T04:15:48.927Z,102489.50
2023-05-20T04:16:20.966Z,102489.50
2023-05-20T04:16:52.568Z,102488.50
2023-05-20T04:17:24.182Z,102486.91
2023-05-20T04:17:57.031Z,102493.63
2023-05-20T04:18:31.857Z,102489.31
2023-05-20T04:19:03.878Z,102492.03
2023-05-20T04:19:36.318Z,102491.00
2023-05-20T04:20:08.246Z,102486.69
2023-05-20T04:20:41.366Z,102489.78
2023-05-20T04:21:12.911Z,102494.53
2023-05-20T04:21:44.423Z,102484.31
2023-05-20T04:22:15.919Z,102484.44
2023-05-20T04:22:49.803Z,102496.47
2023-05-20T04:23:21.213Z,102492.94
2023-05-20T04:23:52.675Z,102493.41
2023-05-20T04:24:25.321Z,102495.47
2023-05-20T04:24:56.785Z,102491.94
2023-05-20T04:25:28.333Z,102493.53
2023-05-20T04:26:02.360Z,102488.09
2023-05-20T04:26:35.453Z,102496.84
2023-05-20T04:27:07.158Z,102494.13
2023-05-20T04:27:39.645Z,102499.25
2023-05-20T04:28:14.089Z,102493.00
2023-05-20T04:28:48.688Z,102489.59
2023-05-20T04:29:21.064Z,102495.84
2023-05-20T04:29:53.002Z,102488.69
2023-05-20T04:30:24.613Z,102493.94
2023-05-20T04:31:00.271Z,102488.09
2023-05-20T04:31:31.815Z,102492.78
2023-05-20T04:32:04.285Z,102490.50
2023-05-20T04:32:35.944Z,102496.41
2023-05-20T04:33:07.609Z,102497.22
2023-05-20T04:33:39.093Z,102490.84
2023-05-20T04:34:10.645Z,102499.59
2023-05-20T04:34:42.136Z,102492.09
2023-05-20T04:35:14.479Z,102499.59
2023-05-20T04:35:48.558Z,102493.81
2023-05-20T04:36:20.553Z,102495.28
2023-05-20T04:36:52.155Z,102496.56
2023-05-20T04:37:23.609Z,102496.88
2023-05-20T04:37:55.575Z,102496.88
2023-05-20T04:38:30.509Z,102502.34
2023-05-20T04:39:03.610Z,102490.97
2023-05-20T04:39:35.241Z,102496.56
2023-05-20T04:40:08.028Z,102505.19
2023-05-20T04:40:39.584Z,102501.66
2023-05-20T04:41:11.150Z,102501.66
2023-05-20T04:41:42.595Z,102501.66
2023-05-20T04:42:14.488Z,102503.59
2023-05-20T04:42:46.015Z,102502.47
2023-05-20T04:43:17.637Z,102498.59
2023-05-20T04:43:49.854Z,102497.47
2023-05-20T04:44:22.709Z,102500.66
2023-05-20T04:44:54.737Z,102498.28
2023-05-20T04:45:26.614Z,102502.59
2023-05-20T04:45:58.703Z,102507.38
2023-05-20T04:46:31.724Z,102510.56
2023-05-20T04:47:06.974Z,102500.66
2023-05-20T04:47:39.323Z,102501.47
2023-05-20T04:48:11.050Z,102495.66
2023-05-20T04:48:45.791Z,102508.97
2023-05-20T04:49:17.318Z,102515.22
2023-05-20T04:49:50.337Z,102504.19
2023-05-20T04:50:21.999Z,102512.50
2023-05-20T04:50:54.695Z,102514.44
2023-05-20T04:51:26.207Z,102499.53
2023-05-20T04:51:58.532Z,102510.22
2023-05-20T04:52:29.985Z,102515.34
2023-05-20T04:53:01.526Z,102506.72
2023-05-20T04:53:34.040Z,102509.06
2023-05-20T04:54:06.191Z,102513.06
2023-05-20T04:54:37.706Z,102502.94
2023-05-20T04:55:10.485Z,102515.47
2023-05-20T04:55:46.211Z,102502.94
2023-05-20T04:56:17.727Z,102503.75
2023-05-20T04:56:49.330Z,102505.81
2023-05-20T04:57:21.177Z,102498.75
2023-05-20T04:57:52.758Z,102507.41
2023-05-20T04:58:24.995Z,102503.19
2023-05-20T04:58:56.550Z,102494.22
2023-05-20T04:59:29.213Z,102495.69
2023-05-20T05:00:02.030Z,102497.75
2023-05-20T05:00:33.771Z,102506.06
2023-05-20T05:01:05.927Z,102498.66
2023-05-20T05:01:37.598Z,102496.72
2023-05-20T05:02:58.143Z,102501.84
2023-05-20T05:03:30.053Z,102500.72
2023-05-20T05:04:01.687Z,102501.84
2023-05-20T05:04:33.215Z,102495.94
2023-05-20T05:05:05.247Z,102500.72
2023-05-20T05:05:37.615Z,102508.13
2023-05-20T05:06:09.129Z,102501.06
2023-05-20T05:06:40.861Z,102496.28
2023-05-20T05:07:12.395Z,102497.19
2023-05-20T05:07:43.926Z,102494.81
2023-05-20T05:08:15.669Z,102505.00
2023-05-20T05:08:47.229Z,102498.00
2023-05-20T05:09:21.098Z,102501.16
2023-05-20T05:09:52.651Z,102490.59
2023-05-20T05:10:25.163Z,102494.09
2023-05-20T05:10:56.698Z,102491.03
2023-05-20T05:11:28.220Z,102495.34
2023-05-20T05:11:59.776Z,102493.09
2023-05-20T05:12:31.235Z,102494.69
2023-05-20T05:13:03.433Z,102495.16
2023-05-20T05:13:35.115Z,102487.16
2023-05-20T05:14:06.644Z,102490.81
2023-05-20T05:14:38.119Z,102487.28
2023-05-20T05:15:10.100Z,102490.47
2023-05-20T05:15:41.559Z,102487.06
2023-05-20T05:16:13.462Z,102496.06
2023-05-20T05:16:44.998Z,102491.06
2023-05-20T05:17:16.505Z,102487.53
2023-05-20T05:17:48.124Z,102493.78
2023-05-20T05:18:19.826Z,102482.88
2023-05-20T05:18:51.392Z,102493.91
2023-05-20T05:19:23.052Z,102490.38
2023-05-20T05:19:54.698Z,102486.16
2023-05-20T05:20:26.145Z,102488.88
2023-05-20T05:21:04.400Z,102481.16
2023-05-20T05:21:36.248Z,102489.47
2023-05-20T05:22:07.722Z,102489.91
2023-05-20T05:22:41.339Z,102497.78
2023-05-20T05:23:13.018Z,102487.66
2023-05-20T05:23:44.569Z,102481.72
2023-05-20T05:24:16.290Z,102479.47
2023-05-20T05:24:47.878Z,102492.88
2023-05-20T05:25:19.518Z,102487.31
2023-05-20T05:25:54.419Z,102491.28
2023-05-20T05:26:26.581Z,102493.69
2023-05-20T05:26:58.094Z,102494.47
2023-05-20T05:27:31.449Z,102488.34
2023-05-20T05:28:07.877Z,102489.09
2023-05-20T05:28:43.645Z,102486.84
2023-05-20T05:29:19.828Z,102493.09
2023-05-20T05:29:51.955Z,102492.28
2023-05-20T05:30:27.269Z,102487.97
2023-05-20T05:31:08.659Z,102481.38
2023-05-20T05:31:46.102Z,102482.16
2023-05-20T05:32:20.863Z,102495.59
2023-05-20T05:32:55.473Z,102486.94
2023-05-20T05:33:27.459Z,102489.00
2023-05-20T05:34:01.835Z,102481.94
2023-05-20T05:34:33.578Z,102484.69
2023-05-20T05:35:07.466Z,102475.81
2023-05-20T05:35:39.837Z,102473.53
2023-05-20T05:36:13.478Z,102471.59
2023-05-20T05:36:47.838Z,102476.72
2023-05-20T05:37:25.108Z,102478.75
2023-05-20T05:37:59.446Z,102478.75
2023-05-20T05:38:33.124Z,102478.84
2023-05-20T05:39:04.950Z,102477.72
2023-05-20T05:39:42.167Z,102474.63
2023-05-20T05:40:14.378Z,102473.03
2023-05-20T05:40:46.103Z,102474.28
2023-05-20T05:41:30.112Z,102476.00
2023-05-20T05:42:04.512Z,102481.13
2023-05-20T05:42:37.920Z,102476.00
2023-05-20T05:43:12.345Z,102480.78
2023-05-20T05:43:46.870Z,102479.53
2023-05-20T05:44:23.717Z,102471.00
2023-05-20T05:44:55.312Z,102474.19
2023-05-20T05:45:27.136Z,102476.22
2023-05-20T05:46:05.644Z,102477.03
2023-05-20T05:46:37.330Z,102471.19
2023-05-20T05:47:09.119Z,102483.84
2023-05-20T05:47:42.884Z,102481.91
2023-05-20T05:48:14.869Z,102475.66
2023-05-20T05:48:49.177Z,102476.44
2023-05-20T05:49:23.446Z,102476.22
2023-05-20T05:49:55.257Z,102478.94
2023-05-20T05:50:29.369Z,102479.41
2023-05-20T05:51:01.409Z,102473.13
2023-05-20T05:51:33.183Z,102461.88
2023-05-20T05:52:05.194Z,102479.16
2023-05-20T05:52:36.849Z,102480.03
2023-05-20T05:53:08.759Z,102476.97
2023-05-20T05:53:40.682Z,102477.06
2023-05-20T05:54:19.680Z,102483.34
2023-05-20T05:54:55.779Z,102477.06
2023-05-20T05:55:32.831Z,102475.13
2023-05-20T05:56:13.274Z,102472.06
2023-05-20T05:56:48.076Z,102468.97
2023-05-20T05:57:22.131Z,102475.00
2023-05-20T05:57:59.720Z,102472.63
2023-05-20T05:58:32.089Z,102469.53
2023-05-20T05:59:06.408Z,102470.00
2023-05-20T05:59:40.800Z,102475.19
2023-05-20T06:00:12.955Z,102479.16
2023-05-20T06:00:47.075Z,102471.31
2023-05-20T06:01:18.803Z,102478.03
2023-05-20T06:01:50.506Z,102475.75
2023-05-20T06:02:22.792Z,102476.19
2023-05-20T06:02:54.645Z,102478.94
2023-05-20T06:03:27.038Z,102483.72
2023-05-20T06:04:00.395Z,102478.22
2023-05-20T06:04:32.460Z,102475.50
2023-05-20T06:05:10.287Z,102480.69
2023-05-20T06:05:45.499Z,102467.75
2023-05-20T06:06:25.860Z,102472.59
2023-05-20T06:06:59.122Z,102464.72
2023-05-20T06:07:30.948Z,102469.06
2023-05-20T06:08:09.496Z,102462.09
2023-05-20T06:08:41.747Z,102464.84
2023-05-20T06:09:16.020Z,102473.59
2023-05-20T06:09:49.699Z,102471.91
2023-05-20T06:11:12.641Z,102468.91
2023-05-20T06:11:47.558Z,102470.16
2023-05-20T06:12:21.613Z,102475.72
2023-05-20T06:12:58.361Z,102469.81